Time;durP1;ratioP1;P1;durP2;ratioP2;P2;SDS_P1;SDS_P2;PMS_P1;PMS_P2;Temp;Humidity;BMP_temperature;BMP_pressure;BME280_temperature;BME280_humidity;BME280_pressure;Samples;Min_cycle;Max_cycle;Signal;HPM_P1;HPM_P2
2023/08/25 00:02:23;;;;;;;5.30;1.20;;;;;;;15.06;100.00;99986.04;104905;1258;73774;-53
2023/08/25 00:04:50;;;;;;;2.10;1.40;;;;;;;15.00;100.00;99991.35;105069;1258;67105;-51
2023/08/25 00:07:18;;;;;;;3.70;1.30;;;;;;;14.94;100.00;99989.02;104852;1254;73734;-53
2023/08/25 00:09:45;;;;;;;2.80;1.70;;;;;;;14.92;100.00;99988.42;105113;1259;60596;-52
2023/08/25 00:12:13;;;;;;;2.60;1.40;;;;;;;14.87;100.00;99984.59;104856;1255;60425;-53
2023/08/25 00:14:40;;;;;;;2.20;1.50;;;;;;;14.79;100.00;99981.64;104732;1259;74905;-53
2023/08/25 00:17:08;;;;;;;2.60;1.80;;;;;;;14.75;100.00;99978.10;104595;1254;66757;-51
2023/08/25 00:19:35;;;;;;;1.40;1.10;;;;;;;14.73;100.00;99973.88;105663;1258;72488;-51
2023/08/25 00:22:03;;;;;;;1.30;0.90;;;;;;;14.72;100.00;99967.27;104943;1258;62247;-51
2023/08/25 00:24:32;;;;;;;4.10;0.90;;;;;;;14.72;100.00;99963.45;105054;1254;60528;-53
2023/08/25 00:27:00;;;;;;;2.40;1.20;;;;;;;14.73;100.00;99958.52;104930;1257;73810;-53
2023/08/25 00:29:27;;;;;;;1.90;1.00;;;;;;;14.73;100.00;99952.91;105043;1255;66966;-54
2023/08/25 00:31:54;;;;;;;2.50;1.00;;;;;;;14.73;100.00;99953.80;104889;1254;71316;-51
2023/08/25 00:34:22;;;;;;;3.10;1.00;;;;;;;14.73;100.00;99940.27;104935;1254;60772;-50
2023/08/25 00:36:49;;;;;;;2.40;0.90;;;;;;;14.73;100.00;99935.20;104544;1258;60596;-53
2023/08/25 00:39:16;;;;;;;1.70;0.90;;;;;;;14.75;100.00;99931.11;104941;1254;73751;-52
2023/08/25 00:41:43;;;;;;;1.50;1.00;;;;;;;14.79;100.00;99928.55;104958;1260;66758;-52
2023/08/25 00:44:11;;;;;;;3.20;1.30;;;;;;;14.80;100.00;99926.69;104864;1255;72136;-53
2023/08/25 00:46:38;;;;;;;3.50;1.40;;;;;;;14.78;100.00;99930.58;108983;1254;60095;-53
2023/08/25 00:49:06;;;;;;;3.50;1.00;;;;;;;14.79;100.00;99931.45;108967;1254;60482;-55
2023/08/25 00:51:33;;;;;;;2.60;1.00;;;;;;;14.74;100.00;99922.87;109068;1254;72622;-54
2023/08/25 00:54:01;;;;;;;1.50;1.10;;;;;;;14.72;100.00;99918.45;109065;1254;65608;-54
2023/08/25 00:56:28;;;;;;;2.20;0.90;;;;;;;14.71;100.00;99914.98;108795;1254;71347;-54
2023/08/25 00:58:55;;;;;;;2.30;1.00;;;;;;;14.70;100.00;99916.48;108843;1253;61600;-55
2023/08/25 01:01:23;;;;;;;1.10;0.90;;;;;;;14.71;100.00;99904.84;108654;1255;59888;-54
2023/08/25 01:03:51;;;;;;;1.70;0.90;;;;;;;14.72;100.00;99899.15;108981;1255;73752;-55
2023/08/25 01:06:18;;;;;;;1.80;0.90;;;;;;;14.72;100.00;99898.77;108923;1254;65633;-52
2023/08/25 01:08:46;;;;;;;1.10;1.00;;;;;;;14.73;100.00;99901.78;106240;1260;73142;-52
2023/08/25 01:11:36;;;;;;;3.70;1.00;;;;;;;14.73;100.00;99902.72;104830;1255;60559;-53
2023/08/25 01:14:30;;;;;;;5.50;1.10;;;;;;;14.70;100.00;99914.48;105535;1253;61822;-53
2023/08/25 01:17:11;;;;;;;3.60;1.00;;;;;;;14.63;100.00;99909.15;105043;1260;73922;-53
2023/08/25 01:19:54;;;;;;;1.70;0.80;;;;;;;14.60;100.00;99910.23;104905;1254;66813;-53
2023/08/25 01:22:27;;;;;;;1.30;0.80;;;;;;;14.58;100.00;99913.61;105192;1255;71397;-51
2023/08/25 01:25:01;;;;;;;2.40;1.10;;;;;;;14.50;100.00;99918.77;104868;1254;60461;-53
2023/08/25 01:27:29;;;;;;;1.00;0.90;;;;;;;14.42;100.00;99926.00;105505;1255;62035;-51
2023/08/25 01:29:56;;;;;;;2.60;1.00;;;;;;;14.34;100.00;99925.02;104837;1253;72573;-53
2023/08/25 01:32:24;;;;;;;1.50;0.80;;;;;;;14.31;100.00;99928.39;105028;1255;65535;-52
2023/08/25 01:34:52;;;;;;;1.40;0.80;;;;;;;14.33;100.00;99920.36;104920;1256;71473;-52
2023/08/25 01:37:28;;;;;;;1.30;0.80;;;;;;;14.36;100.00;99917.85;104837;1261;61693;-53
2023/08/25 01:39:59;;;;;;;2.80;1.00;;;;;;;14.40;100.00;99917.06;105307;1256;60551;-53
2023/08/25 01:42:26;;;;;;;1.30;0.90;;;;;;;14.44;100.00;99914.31;104907;1258;74422;-53
2023/08/25 01:44:53;;;;;;;3.40;0.80;;;;;;;14.45;100.00;99911.73;104686;1255;65061;-53
2023/08/25 01:47:22;;;;;;;4.50;0.90;;;;;;;14.46;100.00;99910.52;104915;1256;71394;-53
2023/08/25 01:49:50;;;;;;;1.60;0.90;;;;;;;14.47;100.00;99909.39;105159;1253;60334;-50
2023/08/25 01:52:19;;;;;;;3.30;0.90;;;;;;;14.46;100.00;99911.30;104839;1254;60590;-49
2023/08/25 01:54:50;;;;;;;2.30;0.80;;;;;;;14.42;100.00;99911.73;107365;1258;72656;-49
2023/08/25 01:57:17;;;;;;;1.00;0.80;;;;;;;14.40;100.00;99908.92;105032;1256;66924;-50
2023/08/25 01:59:45;;;;;;;2.00;0.80;;;;;;;14.36;100.00;99918.15;104722;1259;72700;-50
2023/08/25 02:02:12;;;;;;;2.60;1.10;;;;;;;14.29;100.00;99918.05;104889;1258;61685;-48
2023/08/25 02:04:39;;;;;;;0.90;0.70;;;;;;;14.25;100.00;99913.23;105019;1254;60480;-49
2023/08/25 02:07:07;;;;;;;2.90;0.70;;;;;;;14.26;100.00;99913.21;104947;1254;72217;-49
2023/08/25 02:09:34;;;;;;;2.00;0.90;;;;;;;14.30;100.00;99912.98;104740;1261;66297;-49
2023/08/25 02:12:02;;;;;;;2.40;0.80;;;;;;;14.33;100.00;99908.08;104941;1259;72636;-47
2023/08/25 02:14:29;;;;;;;2.10;0.70;;;;;;;14.37;100.00;99909.08;104929;1256;62568;-48
2023/08/25 02:16:56;;;;;;;0.80;0.70;;;;;;;14.43;100.00;99913.13;104821;1259;60540;-49
2023/08/25 02:19:24;;;;;;;2.00;0.80;;;;;;;14.45;100.00;99907.59;104810;1256;72868;-50
2023/08/25 02:21:53;;;;;;;2.10;0.70;;;;;;;14.47;100.00;99912.11;105883;1254;67732;-49
2023/08/25 02:24:20;;;;;;;1.10;1.00;;;;;;;14.48;100.00;99909.55;104616;1263;72477;-49
2023/08/25 02:26:49;;;;;;;1.50;0.90;;;;;;;14.47;100.00;99904.16;104743;1258;60516;-50
2023/08/25 02:29:16;;;;;;;3.40;0.80;;;;;;;14.47;100.00;99899.29;104684;1254;60576;-51
2023/08/25 02:31:43;;;;;;;1.90;0.80;;;;;;;14.47;100.00;99901.81;104890;1259;74386;-49
2023/08/25 02:34:11;;;;;;;3.20;0.80;;;;;;;14.46;100.00;99895.96;104674;1256;66527;-50
2023/08/25 02:36:39;;;;;;;1.90;0.90;;;;;;;14.40;100.00;99896.66;104877;1254;72731;-48
2023/08/25 02:39:06;;;;;;;1.20;0.70;;;;;;;14.36;100.00;99903.02;104927;1254;60557;-49
2023/08/25 02:41:34;;;;;;;1.50;0.70;;;;;;;14.33;100.00;99907.53;104837;1253;60541;-48
2023/08/25 02:44:03;;;;;;;3.50;0.70;;;;;;;14.31;100.00;99907.30;105827;1254;72643;-49
2023/08/25 02:46:32;;;;;;;1.30;0.90;;;;;;;14.26;100.00;99910.83;105034;1258;68035;-50
2023/08/25 02:48:59;;;;;;;2.60;0.70;;;;;;;14.25;100.00;99909.48;104844;1256;71456;-50
2023/08/25 02:51:26;;;;;;;1.50;0.80;;;;;;;14.24;100.00;99913.66;105007;1254;60558;-49
2023/08/25 02:53:54;;;;;;;1.10;0.80;;;;;;;14.25;100.00;99914.52;105111;1253;60643;-48
2023/08/25 02:56:21;;;;;;;1.30;0.70;;;;;;;14.26;100.00;99914.84;104978;1255;72730;-49
2023/08/25 02:58:48;;;;;;;1.20;0.80;;;;;;;14.25;100.00;99912.53;104993;1261;67556;-48
2023/08/25 03:01:16;;;;;;;3.20;0.80;;;;;;;14.25;100.00;99912.56;104861;1260;73618;-50
2023/08/25 03:03:45;;;;;;;1.10;0.80;;;;;;;14.25;100.00;99915.98;105183;1255;61755;-49
2023/08/25 03:06:13;;;;;;;1.80;0.70;;;;;;;14.24;100.00;99915.67;104826;1254;60569;-49
2023/08/25 03:08:41;;;;;;;2.40;0.80;;;;;;;14.22;100.00;99921.55;105058;1259;73818;-49
2023/08/25 03:11:09;;;;;;;1.20;0.80;;;;;;;14.20;100.00;99919.70;104830;1260;66494;-48
2023/08/25 03:13:37;;;;;;;8.10;0.70;;;;;;;14.20;100.00;99920.27;104797;1258;72471;-49
2023/08/25 03:16:06;;;;;;;2.40;0.70;;;;;;;14.21;100.00;99918.91;104963;1256;61666;-47
2023/08/25 03:18:37;;;;;;;1.10;0.70;;;;;;;14.20;100.00;99919.31;106812;1258;285970;-48
2023/08/25 03:22:03;;;;;;;3.20;0.80;;;;;;;14.22;100.00;99940.52;102027;1290;600937;-50
2023/08/25 03:24:31;;;;;;;3.10;1.10;;;;;;;14.20;100.00;99940.10;108284;1267;59099;-49
2023/08/25 03:26:58;;;;;;;2.30;0.80;;;;;;;14.19;100.00;99939.98;108262;1268;60495;-48
2023/08/25 03:29:26;;;;;;;5.80;1.10;;;;;;;14.17;100.00;99942.27;108338;1267;71362;-49
2023/08/25 03:31:53;;;;;;;1.90;0.70;;;;;;;14.17;100.00;99942.05;108409;1267;67563;-49
2023/08/25 03:34:21;;;;;;;2.80;1.00;;;;;;;14.19;100.00;99942.71;108381;1267;72718;-48
2023/08/25 03:36:48;;;;;;;2.40;0.80;;;;;;;14.20;100.00;99944.09;108351;1264;182290;-49
2023/08/25 03:39:17;;;;;;;1.00;0.70;;;;;;;14.22;100.00;99947.58;108324;1263;60585;-48
2023/08/25 03:41:47;;;;;;;3.70;0.80;;;;;;;14.25;100.00;99948.29;108339;1263;72484;-49
2023/08/25 03:44:15;;;;;;;1.70;0.70;;;;;;;14.29;100.00;99948.94;108410;1265;67606;-49
2023/08/25 03:46:42;;;;;;;0.90;0.60;;;;;;;14.33;100.00;99951.23;108212;1264;73207;-50
2023/08/25 03:49:10;;;;;;;1.30;0.70;;;;;;;14.39;100.00;99953.39;108229;1266;62666;-47
2023/08/25 03:51:38;;;;;;;1.40;0.70;;;;;;;14.46;100.00;99950.85;108423;1266;59137;-49
2023/08/25 03:54:07;;;;;;;1.30;0.70;;;;;;;14.50;100.00;99957.65;108394;1264;73019;-49
2023/08/25 03:56:35;;;;;;;4.10;0.60;;;;;;;14.53;100.00;99959.98;108450;1263;66222;-47
2023/08/25 03:59:02;;;;;;;1.40;0.70;;;;;;;14.60;100.00;99966.38;108392;1263;71424;-48
2023/08/25 04:01:29;;;;;;;3.30;0.90;;;;;;;14.66;100.00;99966.55;108536;1263;59975;-48
2023/08/25 04:03:57;;;;;;;1.00;0.90;;;;;;;14.74;100.00;99961.21;108394;1263;59989;-48
2023/08/25 04:06:26;;;;;;;1.20;0.90;;;;;;;14.81;100.00;99960.20;104607;1267;72052;-49
2023/08/25 04:08:54;;;;;;;2.20;0.80;;;;;;;14.92;100.00;99955.02;104003;1272;66905;-50
2023/08/25 04:11:21;;;;;;;1.60;0.80;;;;;;;15.07;100.00;99950.27;104361;1269;72716;-49
2023/08/25 04:13:49;;;;;;;3.50;0.70;;;;;;;15.21;100.00;99953.19;104159;1266;60401;-49
2023/08/25 04:16:16;;;;;;;1.50;0.70;;;;;;;15.33;100.00;99955.28;103935;1269;59577;-48
2023/08/25 04:18:45;;;;;;;1.30;0.70;;;;;;;15.48;100.00;99958.09;108256;1266;71761;-50
2023/08/25 04:21:12;;;;;;;1.60;0.70;;;;;;;15.61;100.00;99959.04;104021;1269;66816;-50
2023/08/25 04:23:42;;;;;;;1.20;0.80;;;;;;;15.81;100.00;99959.36;104050;1270;73343;-50
2023/08/25 04:26:09;;;;;;;1.30;0.70;;;;;;;16.06;100.00;99957.64;104107;1267;60402;-49
2023/08/25 04:28:37;;;;;;;1.50;0.70;;;;;;;16.35;100.00;99960.00;104120;1273;59699;-49
2023/08/25 04:31:04;;;;;;;0.90;0.70;;;;;;;16.63;100.00;99958.27;104059;1267;73450;-49
2023/08/25 04:33:36;;;;;;;3.20;0.90;;;;;;;16.90;100.00;99954.34;104248;1271;65822;-49
2023/08/25 04:36:04;;;;;;;1.40;0.80;;;;;;;17.19;100.00;99950.08;104285;1270;71533;-50
2023/08/25 04:38:31;;;;;;;2.10;0.90;;;;;;;17.50;100.00;99943.11;103909;1267;59905;-50
2023/08/25 04:40:59;;;;;;;3.60;1.00;;;;;;;17.80;100.00;99941.79;103986;1267;60847;-51
2023/08/25 04:43:26;;;;;;;2.20;1.10;;;;;;;18.04;100.00;99934.91;104123;1272;73025;-50
2023/08/25 04:45:53;;;;;;;5.10;1.10;;;;;;;18.17;100.00;99933.75;104035;1266;67006;-50
2023/08/25 04:48:24;;;;;;;7.00;0.90;;;;;;;18.27;100.00;99929.34;104200;1270;72739;-50
2023/08/25 04:50:51;;;;;;;1.50;1.20;;;;;;;18.32;100.00;99925.98;103984;1268;59736;-50
2023/08/25 04:53:19;;;;;;;4.80;1.00;;;;;;;18.34;100.00;99927.85;103516;1267;60032;-49
2023/08/25 04:55:47;;;;;;;2.50;0.90;;;;;;;18.34;100.00;99925.69;104124;1267;72341;-50
2023/08/25 04:58:15;;;;;;;4.80;1.40;;;;;;;18.32;100.00;99930.56;104078;1266;65813;-52
2023/08/25 05:00:42;;;;;;;2.60;1.00;;;;;;;18.30;100.00;99932.33;104183;1267;72687;-50
2023/08/25 05:03:10;;;;;;;5.90;1.10;;;;;;;18.29;100.00;99930.20;104156;1271;61693;-50
2023/08/25 05:05:38;;;;;;;2.40;0.80;;;;;;;18.30;100.00;99928.48;104957;1267;59756;-51
2023/08/25 05:08:07;;;;;;;2.00;0.90;;;;;;;18.32;100.00;99927.98;105359;1271;73680;-50
2023/08/25 05:10:34;;;;;;;1.80;0.90;;;;;;;18.35;100.00;99930.83;103922;1267;67521;-49
2023/08/25 05:13:03;;;;;;;2.50;1.20;;;;;;;18.39;100.00;99936.13;104682;1260;72675;-50
2023/08/25 05:15:32;;;;;;;3.70;1.60;;;;;;;18.44;100.00;99926.73;104759;1257;60043;-48
2023/08/25 05:17:59;;;;;;;1.90;1.20;;;;;;;18.47;100.00;99926.23;105537;1258;59688;-49
2023/08/25 05:20:27;;;;;;;1.80;1.10;;;;;;;18.51;100.00;99922.67;104779;1254;72827;-51
2023/08/25 05:22:55;;;;;;;2.30;1.10;;;;;;;18.55;100.00;99915.47;105200;1260;67763;-49
2023/08/25 05:25:23;;;;;;;5.80;1.30;;;;;;;18.59;100.00;99901.76;104811;1259;72487;-52
2023/08/25 05:27:50;;;;;;;2.00;1.10;;;;;;;18.63;100.00;99903.94;104772;1257;59768;-51
2023/08/25 05:30:19;;;;;;;4.70;1.40;;;;;;;18.69;100.00;99905.70;104588;1257;59552;-49
2023/08/25 05:32:47;;;;;;;2.10;1.10;;;;;;;18.74;100.00;99905.64;104907;1260;73136;-51
2023/08/25 05:35:29;;;;;;;1.30;1.00;;;;;;;18.79;100.00;99906.27;104715;1254;67716;-49
2023/08/25 05:37:57;;;;;;;3.90;0.90;;;;;;;18.85;100.00;99908.91;104853;1260;72454;-50
2023/08/25 05:40:24;;;;;;;4.10;0.90;;;;;;;18.91;100.00;99917.32;104859;1254;62222;-50
2023/08/25 05:42:53;;;;;;;2.60;1.00;;;;;;;18.97;100.00;99917.42;105062;1255;62514;-51
2023/08/25 05:45:21;;;;;;;4.40;0.80;;;;;;;19.02;100.00;99913.93;105602;1259;73026;-51
2023/08/25 05:47:49;;;;;;;4.00;1.00;;;;;;;19.10;100.00;99912.74;104689;1254;65417;-49
2023/08/25 05:50:17;;;;;;;1.90;1.00;;;;;;;19.19;100.00;99911.28;104614;1254;72458;-51
2023/08/25 05:52:47;;;;;;;2.10;0.80;;;;;;;19.27;100.00;99905.48;104464;1258;59871;-50
2023/08/25 05:55:15;;;;;;;2.90;1.40;;;;;;;19.37;100.00;99906.90;104549;1257;59390;-52
2023/08/25 05:57:42;;;;;;;3.50;0.90;;;;;;;19.45;100.00;99908.77;104659;1254;71660;-51
2023/08/25 06:00:11;;;;;;;2.00;0.80;;;;;;;19.52;100.00;99905.84;104601;1254;65696;-49
2023/08/25 06:02:42;;;;;;;3.30;0.80;;;;;;;19.59;100.00;99899.25;105071;1259;72806;-50
2023/08/25 06:05:10;;;;;;;2.10;0.60;;;;;;;19.64;100.00;99894.61;104501;1254;59773;-49
2023/08/25 06:07:37;;;;;;;3.50;1.00;;;;;;;19.69;100.00;99895.13;104722;1254;60104;-50
2023/08/25 06:10:05;;;;;;;1.90;0.90;;;;;;;19.74;100.00;99893.85;104943;1255;72991;-50
2023/08/25 06:12:33;;;;;;;1.90;0.90;;;;;;;19.78;100.00;99894.90;106490;1254;68729;-50
2023/08/25 06:15:00;;;;;;;4.00;0.90;;;;;;;19.83;100.00;99897.02;104315;1257;73749;-50
2023/08/25 06:17:28;;;;;;;1.20;0.70;;;;;;;19.87;100.00;99894.83;104506;1254;59775;-48
2023/08/25 06:19:55;;;;;;;1.40;0.60;;;;;;;19.93;100.00;99894.75;104629;1256;59695;-51
2023/08/25 06:22:22;;;;;;;1.90;0.70;;;;;;;19.98;100.00;99894.84;104965;1254;73688;-51
2023/08/25 06:24:50;;;;;;;3.70;0.60;;;;;;;20.04;100.00;99891.84;104909;1257;66846;-52
2023/08/25 06:27:18;;;;;;;1.80;0.50;;;;;;;20.09;100.00;99893.92;105074;1254;71397;-50
2023/08/25 06:29:45;;;;;;;2.40;0.60;;;;;;;20.15;100.00;99892.68;105005;1257;60123;-50
2023/08/25 06:32:14;;;;;;;3.30;0.70;;;;;;;20.22;100.00;99893.00;104987;1254;59635;-53
2023/08/25 06:34:42;;;;;;;4.00;0.70;;;;;;;20.29;100.00;99891.10;109056;1253;71832;-50
2023/08/25 06:37:10;;;;;;;1.80;0.60;;;;;;;20.36;100.00;99886.11;109202;1254;65714;-52
2023/08/25 06:39:37;;;;;;;1.80;0.70;;;;;;;20.43;100.00;99880.20;109121;1253;72760;-51
2023/08/25 06:42:05;;;;;;;0.90;0.60;;;;;;;20.51;100.00;99875.37;109103;1254;60093;-52
2023/08/25 06:44:32;;;;;;;1.10;0.60;;;;;;;20.58;100.00;99873.60;109234;1252;59990;-52
2023/08/25 06:46:59;;;;;;;1.10;0.70;;;;;;;20.66;100.00;99874.40;109170;1253;72115;-53
2023/08/25 06:49:27;;;;;;;2.70;0.60;;;;;;;20.73;100.00;99877.01;109217;1253;65673;-53
2023/08/25 06:51:54;;;;;;;1.50;0.70;;;;;;;20.82;100.00;99883.93;108975;1253;72896;-54
2023/08/25 06:54:25;;;;;;;4.10;0.70;;;;;;;20.90;100.00;99881.16;109106;1253;59982;-53
2023/08/25 06:56:52;;;;;;;1.60;0.70;;;;;;;20.99;100.00;99880.51;109186;1254;60027;-53
2023/08/25 06:59:20;;;;;;;1.70;0.60;;;;;;;21.09;100.00;99876.90;109110;1253;73080;-49
2023/08/25 07:01:47;;;;;;;2.40;0.60;;;;;;;21.18;100.00;99881.58;106804;1254;67544;-51
2023/08/25 07:04:16;;;;;;;1.70;0.70;;;;;;;21.28;100.00;99882.34;105082;1257;72227;-50
2023/08/25 07:06:43;;;;;;;1.20;0.60;;;;;;;21.38;100.00;99881.24;105327;1254;59672;-50
2023/08/25 07:09:13;;;;;;;2.70;0.60;;;;;;;21.47;100.00;99878.91;105012;1254;60549;-49
2023/08/25 07:11:40;;;;;;;2.00;1.00;;;;;;;21.56;100.00;99878.15;105010;1254;71817;-49
2023/08/25 07:14:07;;;;;;;2.40;0.70;;;;;;;21.63;100.00;99877.13;104990;1253;67156;-50
2023/08/25 07:16:35;;;;;;;1.00;0.60;;;;;;;21.70;100.00;99874.45;104767;1253;72738;-49
2023/08/25 07:19:02;;;;;;;1.40;0.60;;;;;;;21.76;100.00;99873.86;105096;1254;59768;-51
2023/08/25 07:21:30;;;;;;;4.20;0.60;;;;;;;21.83;100.00;99879.95;105016;1254;59986;-51
2023/08/25 07:23:57;;;;;;;1.20;0.50;;;;;;;21.91;100.00;99877.37;105102;1260;73026;-50
2023/08/25 07:26:27;;;;;;;2.80;0.50;;;;;;;21.98;100.00;99876.03;104881;1256;67491;-50
2023/08/25 07:28:55;;;;;;;1.70;0.50;;;;;;;22.05;100.00;99877.38;105079;1258;70929;-51
2023/08/25 07:31:22;;;;;;;2.30;0.40;;;;;;;22.12;100.00;99883.27;105111;1254;60532;-52
2023/08/25 07:33:50;;;;;;;2.00;0.60;;;;;;;22.19;100.00;99878.21;105015;1256;60422;-51
2023/08/25 07:36:17;;;;;;;1.90;0.60;;;;;;;22.28;100.00;99880.92;105013;1254;72540;-51
2023/08/25 07:38:45;;;;;;;1.50;0.40;;;;;;;22.36;100.00;99883.46;105241;1254;66165;-51
2023/08/25 07:41:15;;;;;;;1.60;0.60;;;;;;;22.41;100.00;99877.05;105033;1258;72590;-51
2023/08/25 07:43:43;;;;;;;2.10;0.50;;;;;;;22.47;100.00;99877.06;105082;1254;60542;-50
2023/08/25 07:46:13;;;;;;;1.50;0.50;;;;;;;22.55;100.00;99874.11;105444;1252;60588;-52
2023/08/25 07:48:40;;;;;;;0.90;0.50;;;;;;;22.62;100.00;99871.20;105038;1259;75194;-53
2023/08/25 07:51:08;;;;;;;0.70;0.60;;;;;;;22.68;100.00;99875.18;104583;1254;66777;-51
2023/08/25 07:53:35;;;;;;;0.90;0.60;;;;;;;22.75;100.00;99869.96;104987;1253;70913;-51
2023/08/25 07:56:03;;;;;;;2.10;0.50;;;;;;;22.85;100.00;99869.36;105146;1257;60450;-50
2023/08/25 07:58:30;;;;;;;1.40;0.70;;;;;;;22.91;100.00;99868.20;105106;1254;60721;-50
2023/08/25 08:00:58;;;;;;;2.60;0.70;;;;;;;22.95;100.00;99865.12;105253;1256;73258;-51
2023/08/25 08:03:25;;;;;;;4.00;0.50;;;;;;;22.99;100.00;99860.11;105335;1252;67181;-51
2023/08/25 08:05:53;;;;;;;0.50;0.40;;;;;;;23.05;100.00;99860.21;105141;1259;72703;-52
2023/08/25 08:08:20;;;;;;;3.20;0.60;;;;;;;23.13;100.00;99856.52;104888;1259;61162;-52
2023/08/25 08:10:48;;;;;;;3.10;0.40;;;;;;;23.20;100.00;99854.72;105036;1254;60589;-52
2023/08/25 08:13:15;;;;;;;0.70;0.50;;;;;;;23.28;100.00;99857.91;105119;1254;72656;-50
2023/08/25 08:15:42;;;;;;;3.90;0.70;;;;;;;23.37;100.00;99862.21;104796;1257;67165;-52
2023/08/25 08:18:10;;;;;;;0.60;0.50;;;;;;;23.43;100.00;99866.16;105138;1259;71684;-51
2023/08/25 08:20:37;;;;;;;0.60;0.40;;;;;;;23.51;100.00;99866.15;105048;1259;60556;-50
2023/08/25 08:23:04;;;;;;;0.40;0.40;;;;;;;23.59;100.00;99868.83;105132;1254;60531;-50
2023/08/25 08:25:36;;;;;;;1.20;0.50;;;;;;;23.66;100.00;99869.91;105046;1258;73832;-50
2023/08/25 08:28:04;;;;;;;1.00;0.40;;;;;;;23.72;100.00;99872.17;105076;1254;66257;-51
2023/08/25 08:30:31;;;;;;;0.80;0.50;;;;;;;23.77;100.00;99869.36;105144;1254;71426;-50
2023/08/25 08:32:58;;;;;;;1.80;0.60;;;;;;;23.82;100.00;99871.04;104966;1254;61144;-51
2023/08/25 08:35:26;;;;;;;0.50;0.40;;;;;;;23.87;100.00;99874.16;104817;1257;60544;-50
2023/08/25 08:37:53;;;;;;;0.70;0.50;;;;;;;23.93;100.00;99874.45;105054;1252;72655;-53
2023/08/25 08:40:21;;;;;;;0.60;0.40;;;;;;;23.99;100.00;99875.48;106039;1257;66054;-52
2023/08/25 08:42:49;;;;;;;1.20;0.50;;;;;;;24.05;100.00;99876.34;104680;1256;72430;-53
2023/08/25 08:45:20;;;;;;;0.50;0.40;;;;;;;24.12;100.00;99882.04;106112;1254;60532;-51
2023/08/25 08:47:47;;;;;;;3.50;0.70;;;;;;;24.18;100.00;99884.91;105081;1259;60515;-50
2023/08/25 08:50:15;;;;;;;2.60;0.50;;;;;;;24.24;100.00;99886.17;104977;1253;73788;-52
2023/08/25 08:52:42;;;;;;;1.80;0.50;;;;;;;24.30;100.00;99882.83;104761;1254;66963;-51
2023/08/25 08:55:10;;;;;;;0.80;0.60;;;;;;;24.37;100.00;99884.12;105031;1254;71496;-50
2023/08/25 08:57:37;;;;;;;2.50;0.40;;;;;;;24.43;100.00;99881.77;105117;1254;60639;-52
2023/08/25 09:00:11;;;;;;;1.10;0.50;;;;;;;24.49;100.00;99881.16;104986;1258;60453;-51
2023/08/25 09:02:43;;;;;;;0.90;0.50;;;;;;;24.55;100.00;99875.64;104744;1256;73820;-53
2023/08/25 09:05:11;;;;;;;0.90;0.60;;;;;;;24.62;100.00;99873.01;104989;1257;66768;-51
2023/08/25 09:07:39;;;;;;;1.40;0.40;;;;;;;24.70;100.00;99872.38;104985;1254;71184;-52
2023/08/25 09:10:07;;;;;;;0.70;0.50;;;;;;;24.78;100.00;99869.23;104961;1260;60547;-50
2023/08/25 09:12:35;;;;;;;1.00;0.50;;;;;;;24.86;100.00;99868.05;109195;1253;59913;-52
2023/08/25 09:15:03;;;;;;;3.40;0.40;;;;;;;24.95;100.00;99868.48;109206;1254;74257;-53
2023/08/25 09:17:32;;;;;;;1.90;0.50;;;;;;;25.02;100.00;99868.45;109034;1252;67217;-51
2023/08/25 09:20:07;;;;;;;1.10;0.40;;;;;;;25.05;100.00;99867.23;108955;1254;72726;-52
2023/08/25 09:22:35;;;;;;;0.70;0.40;;;;;;;25.10;100.00;99869.81;109061;1252;58840;-52
2023/08/25 09:25:02;;;;;;;1.40;0.40;;;;;;;25.17;100.00;99865.89;109265;1252;58729;-52
2023/08/25 09:27:30;;;;;;;2.90;0.40;;;;;;;25.23;100.00;99868.20;109224;1254;73629;-49
2023/08/25 09:30:05;;;;;;;2.10;0.40;;;;;;;25.26;100.00;99865.93;109074;1252;66718;-51
2023/08/25 09:32:33;;;;;;;1.10;0.50;;;;;;;25.34;100.00;99867.52;109145;1253;71452;-53
2023/08/25 09:35:14;;;;;;;0.80;0.40;;;;;;;25.42;100.00;99862.39;109172;1254;60037;-52
2023/08/25 09:37:42;;;;;;;1.00;0.40;;;;;;;25.50;100.00;99862.28;109277;1252;59978;-52
2023/08/25 09:40:14;;;;;;;1.70;0.40;;;;;;;25.57;100.00;99863.50;109159;1254;72890;-53
2023/08/25 09:42:41;;;;;;;1.40;0.40;;;;;;;25.62;100.00;99863.86;109153;1253;66707;-52
2023/08/25 09:45:10;;;;;;;0.60;0.40;;;;;;;25.65;100.00;99862.71;109124;1253;71421;-53
2023/08/25 09:47:38;;;;;;;0.50;0.40;;;;;;;25.68;100.00;99864.61;106957;1256;60554;-51
2023/08/25 09:50:06;;;;;;;0.60;0.40;;;;;;;25.70;100.00;99864.13;105116;1254;60489;-52
2023/08/25 09:52:36;;;;;;;0.80;0.40;;;;;;;25.74;100.00;99868.55;105071;1256;74282;-51
2023/08/25 09:55:04;;;;;;;0.60;0.50;;;;;;;25.79;100.00;99866.84;105048;1254;66182;-52
2023/08/25 09:57:31;;;;;;;0.60;0.30;;;;;;;25.84;100.00;99867.59;105024;1253;71455;-52
2023/08/25 09:59:59;;;;;;;0.60;0.40;;;;;;;25.89;100.00;99861.70;105108;1259;60575;-52
2023/08/25 10:02:26;;;;;;;0.70;0.50;;;;;;;25.95;100.00;99865.09;105003;1253;60357;-51
2023/08/25 10:04:54;;;;;;;1.70;0.40;;;;;;;26.00;100.00;99867.83;104893;1254;72704;-53
2023/08/25 10:07:22;;;;;;;0.40;0.40;;;;;;;26.05;100.00;99867.99;104835;1254;65483;-53
2023/08/25 10:09:50;;;;;;;0.60;0.50;;;;;;;26.11;100.00;99864.08;104899;1258;71393;-52
2023/08/25 10:12:17;;;;;;;0.80;0.40;;;;;;;26.16;100.00;99862.52;104970;1253;60550;-52
2023/08/25 10:14:45;;;;;;;0.70;0.50;;;;;;;26.22;100.00;99868.46;105175;1253;60663;-52
2023/08/25 10:17:13;;;;;;;0.50;0.40;;;;;;;26.22;100.00;99865.12;105095;1253;74300;-51
2023/08/25 10:19:40;;;;;;;0.40;0.40;;;;;;;26.22;100.00;99864.36;109017;1252;67064;-52
2023/08/25 10:22:07;;;;;;;1.60;0.40;;;;;;;26.24;100.00;99864.58;107057;1256;71689;-52
2023/08/25 10:24:35;;;;;;;0.80;0.40;;;;;;;26.28;100.00;99863.41;105016;1254;61056;-52
2023/08/25 10:27:02;;;;;;;0.60;0.40;;;;;;;26.33;100.00;99869.86;104957;1253;60521;-52
2023/08/25 10:29:30;;;;;;;2.10;0.40;;;;;;;26.35;100.00;99870.91;104976;1258;73444;-50
2023/08/25 10:31:59;;;;;;;0.70;0.50;;;;;;;26.33;100.00;99868.30;105182;1254;65646;-51
2023/08/25 10:34:35;;;;;;;0.60;0.50;;;;;;;26.35;100.00;99870.04;105184;1254;72761;-51
2023/08/25 10:37:10;;;;;;;0.30;0.30;;;;;;;26.39;100.00;99870.79;105157;1259;60907;-52
2023/08/25 10:39:44;;;;;;;0.80;0.40;;;;;;;26.45;100.00;99866.55;105153;1259;60532;-51
2023/08/25 10:42:12;;;;;;;1.80;0.40;;;;;;;26.47;100.00;99867.71;105107;1254;73840;-53
2023/08/25 10:44:41;;;;;;;0.80;0.40;;;;;;;26.49;100.00;99868.48;104840;1254;66298;-51
2023/08/25 10:47:08;;;;;;;1.40;0.40;;;;;;;26.46;100.00;99869.52;105104;1258;72682;-53
2023/08/25 10:49:39;;;;;;;1.10;0.40;;;;;;;26.40;100.00;99872.41;104964;1254;60489;-53
2023/08/25 10:52:16;;;;;;;1.50;0.50;;;;;;;26.31;100.00;99878.72;109099;1252;58504;-52
2023/08/25 10:54:44;;;;;;;2.40;0.50;;;;;;;26.25;100.00;99875.90;107712;1256;73366;-53
2023/08/25 10:57:19;;;;;;;2.30;0.40;;;;;;;26.20;100.00;99876.95;105409;1256;65574;-49
2023/08/25 10:59:52;;;;;;;1.20;0.50;;;;;;;26.16;100.00;99875.09;105271;1256;73214;-53
2023/08/25 11:02:33;;;;;;;1.10;0.60;;;;;;;26.07;100.00;99875.17;105225;1256;60559;-51
2023/08/25 11:05:26;;;;;;;2.10;0.60;;;;;;;25.97;100.00;99885.98;105432;1254;60644;-50
2023/08/25 11:07:53;;;;;;;1.00;0.60;;;;;;;25.85;100.00;99883.82;104933;1254;72568;-52
2023/08/25 11:10:21;;;;;;;0.50;0.40;;;;;;;25.79;100.00;99878.94;105057;1254;65775;-50
2023/08/25 11:12:55;;;;;;;0.70;0.50;;;;;;;25.78;100.00;99876.39;104993;1256;71415;-49
2023/08/25 11:15:37;;;;;;;0.90;0.50;;;;;;;25.80;100.00;99877.39;104997;1256;60485;-50
2023/08/25 11:18:05;;;;;;;0.60;0.50;;;;;;;25.83;100.00;99877.41;105360;1259;60525;-50
2023/08/25 11:20:43;;;;;;;0.70;0.50;;;;;;;25.86;100.00;99870.66;105060;1254;74032;-51
2023/08/25 11:23:11;;;;;;;1.80;0.50;;;;;;;25.85;100.00;99872.08;105331;1257;65961;-50
2023/08/25 11:25:47;;;;;;;2.40;0.50;;;;;;;25.81;100.00;99869.58;105049;1257;72782;-53